Terminal Aerodrome Forecast
Issued by NWS Wilmington, OH

Current Version | Previous Version | Graphics & Text | Print | Product List | Glossary On
Versions: 1 2 3 4 5 6 7 8 9 10 11 12 13 14 15 16 17 18 19 20 21
644
FTUS41 KILN 200730 AAC
TAFDAY
TAF AMD
KDAY 200730Z 2008/2106 VRB03KT 1SM BR VV005
      TEMPO 2008/2009 1/4SM FG VV003
     FM200900 00000KT 1/4SM FG VV005
     FM201300 VRB03KT 1SM BR BKN015
     FM201500 14004KT P6SM SCT015
     FM201800 14007KT P6SM SCT200
     FM210200 15007KT P6SM BKN250=

USA.gov is the U.S. government's official web portal to all federal, state and local government web resources and services.